Time;durP1;ratioP1;P1;durP2;ratioP2;P2;SDS_P1;SDS_P2;PMS_P1;PMS_P2;Temp;Humidity;BMP_temperature;BMP_pressure;BME280_temperature;BME280_humidity;BME280_pressure;Samples;Min_cycle;Max_cycle;Signal;HPM_P1;HPM_P2
2021/04/20 00:00:48;;;;;;;192.93;91.05;;;;;;;8.82;60.42;100118.63;3583293;40;20037;-69
2021/04/20 00:03:15;;;;;;;207.75;97.43;;;;;;;8.86;60.21;100108.91;3585872;40;20037;-70
2021/04/20 00:05:42;;;;;;;230.40;106.55;;;;;;;8.93;60.11;100104.31;3587023;40;20059;-68
2021/04/20 00:08:09;;;;;;;221.00;101.82;;;;;;;8.96;59.78;100105.09;3582247;40;20081;-68
2021/04/20 00:10:37;;;;;;;199.73;97.28;;;;;;;8.96;59.63;100104.25;3582970;40;20356;-70
2021/04/20 00:13:04;;;;;;;172.85;90.60;;;;;;;8.94;59.83;100096.41;3585837;40;20448;-70
2021/04/20 00:15:32;;;;;;;166.65;84.55;;;;;;;8.92;59.81;100097.38;3583453;40;20036;-71
2021/04/20 00:18:01;;;;;;;155.77;79.97;;;;;;;8.88;59.47;100087.94;3581657;40;20037;-70
2021/04/20 00:20:27;;;;;;;152.40;82.35;;;;;;;8.76;59.56;100092.69;3583679;40;20036;-70
2021/04/20 00:22:55;;;;;;;159.38;81.38;;;;;;;8.61;59.83;100087.13;3583274;40;20044;-70
2021/04/20 00:25:21;;;;;;;152.65;79.55;;;;;;;8.47;60.00;100092.78;3583218;40;20191;-69
2021/04/20 00:27:48;;;;;;;148.63;80.82;;;;;;;8.36;60.15;100102.72;3582415;40;20345;-70
2021/04/20 00:30:15;;;;;;;144.68;81.28;;;;;;;8.29;60.01;100101.16;3584889;40;20076;-71
2021/04/20 00:32:42;;;;;;;152.80;76.07;;;;;;;8.29;60.10;100101.16;3586408;40;20290;-70
2021/04/20 00:35:10;;;;;;;154.25;79.93;;;;;;;8.32;60.01;100099.31;3581993;40;20376;-75
2021/04/20 00:37:38;;;;;;;155.73;78.25;;;;;;;8.36;60.01;100100.13;3584951;40;20073;-70
2021/04/20 00:40:08;;;;;;;151.70;77.55;;;;;;;8.26;60.13;100095.13;3583213;40;20147;-70
2021/04/20 00:42:45;;;;;;;157.73;79.13;;;;;;;8.14;60.29;100090.31;3586185;40;20056;-70
2021/04/20 00:45:13;;;;;;;167.10;80.72;;;;;;;8.08;60.83;100087.00;3583392;40;20096;-70
2021/04/20 00:47:39;;;;;;;153.13;81.30;;;;;;;8.02;60.87;100093.28;3585331;40;20078;-70
2021/04/20 00:50:07;;;;;;;151.52;78.50;;;;;;;7.93;61.19;100094.44;3581459;40;20129;-70
2021/04/20 00:52:33;;;;;;;149.45;79.75;;;;;;;7.88;61.36;100085.00;3586409;40;20475;-70
2021/04/20 00:55:00;;;;;;;158.55;80.72;;;;;;;7.83;61.51;100092.13;3584478;40;20045;-70
2021/04/20 00:57:27;;;;;;;144.75;77.32;;;;;;;7.76;61.75;100088.00;3582888;40;20052;-70
2021/04/20 00:59:53;;;;;;;142.45;75.78;;;;;;;7.73;61.60;100102.00;3582881;40;20171;-71
2021/04/20 01:02:19;;;;;;;144.15;77.68;;;;;;;7.74;61.64;100100.22;3586522;40;20049;-70
2021/04/20 01:04:46;;;;;;;144.43;76.45;;;;;;;7.77;61.82;100097.53;3584206;40;20048;-70
2021/04/20 01:07:13;;;;;;;146.55;77.05;;;;;;;7.85;61.67;100092.94;3585236;40;20036;-71
2021/04/20 01:09:40;;;;;;;150.38;76.00;;;;;;;7.93;61.56;100083.13;3582047;40;20069;-70
2021/04/20 01:12:07;;;;;;;133.52;72.00;;;;;;;7.97;61.39;100082.13;3586736;40;20036;-71
2021/04/20 01:14:35;;;;;;;154.43;72.95;;;;;;;7.93;61.44;100086.59;3584780;40;20090;-70
2021/04/20 01:17:02;;;;;;;140.00;71.50;;;;;;;7.94;61.40;100079.63;3581818;40;20029;-70
2021/04/20 01:19:31;;;;;;;135.98;70.70;;;;;;;7.96;61.50;100075.19;3583088;39;20029;-70
2021/04/20 01:21:58;;;;;;;134.95;69.28;;;;;;;7.94;61.50;100080.47;3584050;40;20044;-71
2021/04/20 01:24:27;;;;;;;132.82;69.53;;;;;;;7.87;61.60;100078.94;3581149;40;20232;-70
2021/04/20 01:26:58;;;;;;;137.10;69.63;;;;;;;7.82;61.98;100074.75;3583737;40;20038;-71
2021/04/20 01:29:25;;;;;;;127.68;67.53;;;;;;;7.74;62.41;100076.75;3584948;40;20080;-71
2021/04/20 01:31:51;;;;;;;126.43;64.95;;;;;;;7.65;62.45;100083.94;3586919;40;20146;-70
2021/04/20 01:34:18;;;;;;;121.47;69.20;;;;;;;7.57;62.95;100082.44;3581584;40;20036;-70
2021/04/20 01:36:45;;;;;;;121.93;69.78;;;;;;;7.52;62.67;100079.13;3585740;40;20077;-70
2021/04/20 01:39:13;;;;;;;124.53;68.03;;;;;;;7.48;62.83;100078.31;3582094;40;20100;-70
2021/04/20 01:41:40;;;;;;;130.35;68.38;;;;;;;7.45;62.68;100077.56;3580776;40;20039;-70
2021/04/20 01:44:08;;;;;;;140.57;70.82;;;;;;;7.44;62.69;100086.28;3581563;40;20127;-70
2021/04/20 01:46:34;;;;;;;131.27;69.07;;;;;;;7.45;62.83;100088.84;3582478;40;20043;-70
2021/04/20 01:49:01;;;;;;;128.65;66.13;;;;;;;7.43;63.02;100084.59;3580024;40;20049;-70
2021/04/20 01:51:27;;;;;;;130.10;68.15;;;;;;;7.39;62.79;100083.81;3583277;40;20036;-69
2021/04/20 01:53:55;;;;;;;125.30;67.05;;;;;;;7.35;62.92;100084.81;3584352;40;20033;-70
2021/04/20 01:56:22;;;;;;;127.65;66.25;;;;;;;7.34;63.09;100089.16;3584229;40;20130;-70
2021/04/20 01:58:50;;;;;;;126.85;67.72;;;;;;;7.32;63.05;100090.13;3582886;40;20084;-68
2021/04/20 02:01:18;;;;;;;136.13;68.57;;;;;;;7.30;63.31;100097.13;3585636;39;20040;-70
2021/04/20 02:03:46;;;;;;;129.75;66.80;;;;;;;7.29;63.15;100095.41;3586286;40;20044;-70
2021/04/20 02:06:14;;;;;;;144.00;66.72;;;;;;;7.28;62.98;100093.69;3583827;40;20094;-70
2021/04/20 02:08:41;;;;;;;128.82;64.20;;;;;;;7.32;63.00;100095.31;3585800;40;20644;-70
2021/04/20 02:11:09;;;;;;;124.20;62.42;;;;;;;7.37;63.29;100093.44;3586508;40;20048;-70
2021/04/20 02:13:36;;;;;;;112.30;57.92;;;;;;;7.47;62.98;100087.06;3587107;40;20044;-71
2021/04/20 02:16:06;;;;;;;87.07;48.33;;;;;;;7.57;62.52;100080.69;3585360;40;20044;-71
2021/04/20 02:18:35;;;;;;;121.57;58.28;;;;;;;7.69;62.29;100089.91;3588592;40;20037;-68
2021/04/20 02:21:03;;;;;;;91.43;47.58;;;;;;;7.76;62.14;100093.22;3584383;40;20036;-71
2021/04/20 02:23:29;;;;;;;83.45;46.85;;;;;;;7.85;61.91;100092.94;3586920;40;20401;-70
2021/04/20 02:26:02;;;;;;;71.05;39.53;;;;;;;7.91;61.69;100090.13;3588393;40;20029;-69
2021/04/20 02:28:31;;;;;;;82.88;44.30;;;;;;;7.94;61.57;100083.09;3582147;40;20130;-70
2021/04/20 02:30:59;;;;;;;93.25;47.85;;;;;;;8.02;61.73;100087.22;3584694;40;20117;-70
2021/04/20 02:33:26;;;;;;;94.00;49.70;;;;;;;8.09;61.58;100088.72;3586822;40;20039;-70
2021/04/20 02:35:54;;;;;;;104.72;52.00;;;;;;;8.11;61.44;100085.16;3585361;40;20344;-70
2021/04/20 02:38:21;;;;;;;102.53;52.83;;;;;;;8.07;61.67;100091.38;3586960;40;20061;-71
2021/04/20 02:40:52;;;;;;;93.70;50.17;;;;;;;7.99;61.76;100084.69;3584311;40;20433;-70
2021/04/20 02:43:19;;;;;;;106.88;53.55;;;;;;;7.93;61.92;100088.34;3587024;40;20049;-70
2021/04/20 02:45:47;;;;;;;104.70;52.97;;;;;;;7.79;62.19;100093.13;3587776;40;20043;-70
2021/04/20 02:48:13;;;;;;;103.90;56.17;;;;;;;7.68;62.53;100092.56;3586177;40;20061;-70
2021/04/20 02:50:43;;;;;;;99.13;55.72;;;;;;;7.53;62.60;100091.28;3584241;40;20047;-70
2021/04/20 02:53:10;;;;;;;104.82;55.83;;;;;;;7.40;62.97;100093.34;3585563;40;20056;-70
2021/04/20 02:55:36;;;;;;;101.72;53.08;;;;;;;7.30;62.73;100086.69;3584396;40;20050;-70
2021/04/20 02:58:05;;;;;;;95.28;53.33;;;;;;;7.18;63.13;100089.63;3587184;40;20496;-70
2021/04/20 03:00:32;;;;;;;94.40;53.47;;;;;;;7.10;63.14;100083.78;3585444;40;20048;-70
2021/04/20 03:03:00;;;;;;;99.22;51.50;;;;;;;7.00;62.99;100089.22;3587235;40;20345;-70
2021/04/20 03:05:28;;;;;;;92.53;50.20;;;;;;;6.89;63.18;100085.19;3586022;39;20037;-71
2021/04/20 03:07:56;;;;;;;92.10;51.50;;;;;;;6.79;63.40;100079.34;3585200;40;20122;-70
2021/04/20 03:10:23;;;;;;;92.70;50.83;;;;;;;6.74;63.45;100076.00;3586431;40;20068;-70
2021/04/20 03:12:51;;;;;;;94.55;52.15;;;;;;;6.72;63.44;100083.00;3583756;40;20111;-70
2021/04/20 03:15:18;;;;;;;98.05;52.22;;;;;;;6.65;63.72;100087.50;3584535;40;20074;-70
2021/04/20 03:17:47;;;;;;;97.60;56.17;;;;;;;6.60;63.86;100084.16;3586090;40;20305;-70
2021/04/20 03:20:15;;;;;;;105.00;55.45;;;;;;;6.54;63.92;100084.31;3585371;40;20059;-70
2021/04/20 03:22:43;;;;;;;96.50;52.97;;;;;;;6.50;63.98;100081.84;3586792;40;20041;-70
2021/04/20 03:25:20;;;;;;;100.32;53.30;;;;;;;6.47;64.36;100074.94;3583810;40;20053;-70
2021/04/20 03:27:50;;;;;;;98.85;52.38;;;;;;;6.46;63.97;100075.84;3585561;40;20388;-70
2021/04/20 03:30:19;;;;;;;102.57;54.65;;;;;;;6.43;64.21;100073.28;3585558;40;20104;-70
2021/04/20 03:32:51;;;;;;;105.40;56.20;;;;;;;6.39;64.43;100079.47;3585748;40;20045;-70
2021/04/20 03:35:24;;;;;;;128.98;61.13;;;;;;;6.36;64.26;100079.56;3585456;40;20035;-70
2021/04/20 03:37:57;;;;;;;115.95;60.50;;;;;;;6.33;64.43;100079.63;3584505;40;20438;-71
2021/04/20 03:40:27;;;;;;;129.55;61.85;;;;;;;6.28;64.69;100071.94;3583997;40;20324;-70
2021/04/20 03:42:58;;;;;;;131.45;61.03;;;;;;;6.29;64.49;100078.84;3586208;40;20075;-70
2021/04/20 03:45:30;;;;;;;123.05;59.97;;;;;;;6.28;64.74;100074.53;3586084;40;20060;-70
2021/04/20 03:48:02;;;;;;;124.35;62.15;;;;;;;6.29;64.58;100084.06;3581751;40;20049;-71
2021/04/20 03:50:34;;;;;;;133.73;64.57;;;;;;;6.30;64.86;100075.34;3586775;40;20086;-71
2021/04/20 03:53:05;;;;;;;114.88;60.70;;;;;;;6.37;64.66;100076.91;3583115;40;20420;-71
2021/04/20 03:55:34;;;;;;;134.80;61.20;;;;;;;6.42;64.65;100075.03;3585991;40;20072;-71
2021/04/20 03:58:03;;;;;;;126.03;59.75;;;;;;;6.47;64.48;100069.75;3584627;40;20040;-71
2021/04/20 04:00:30;;;;;;;129.82;63.60;;;;;;;6.49;64.61;100067.09;3586147;40;20437;-71
2021/04/20 04:02:57;;;;;;;131.55;64.40;;;;;;;6.54;64.48;100070.44;3586466;40;20040;-71
2021/04/20 04:05:27;;;;;;;116.97;60.17;;;;;;;6.56;64.53;100061.69;3585280;40;20117;-71
2021/04/20 04:07:57;;;;;;;123.97;58.25;;;;;;;6.61;64.36;100070.25;3584062;40;20036;-71
2021/04/20 04:10:23;;;;;;;109.93;55.33;;;;;;;6.67;64.27;100066.66;3587015;40;20064;-71
2021/04/20 04:12:54;;;;;;;102.47;54.65;;;;;;;6.69;64.22;100063.09;3584675;40;20044;-71
2021/04/20 04:15:22;;;;;;;123.83;59.83;;;;;;;6.73;64.29;100059.53;3585909;40;20047;-71
2021/04/20 04:17:49;;;;;;;177.73;77.72;;;;;;;6.78;64.39;100064.59;3584788;40;20057;-71
2021/04/20 04:20:18;;;;;;;187.43;83.15;;;;;;;6.82;64.27;100068.84;3586199;40;20312;-70
2021/04/20 04:22:49;;;;;;;152.52;72.32;;;;;;;6.87;64.29;100072.19;3583851;40;20039;-70
2021/04/20 04:25:20;;;;;;;148.02;70.82;;;;;;;6.97;63.85;100059.78;3584078;40;20064;-70
2021/04/20 04:27:49;;;;;;;119.72;58.25;;;;;;;7.07;63.62;100068.19;3585448;40;20139;-70
2021/04/20 04:30:21;;;;;;;115.20;59.70;;;;;;;7.19;63.48;100073.09;3584161;40;20138;-70
2021/04/20 04:32:47;;;;;;;;;;;;;;;7.46;62.56;100067.09;3585307;40;20110;-70
2021/04/20 04:35:14;;;;;;;91.78;48.17;;;;;;;7.39;62.64;100072.53;3584319;40;19936;-70
2021/04/20 04:37:42;;;;;;;93.65;48.00;;;;;;;7.41;62.89;100076.81;3583942;40;20040;-70
2021/04/20 04:40:09;;;;;;;89.20;48.55;;;;;;;7.50;62.78;100078.31;3584762;39;20142;-71
2021/04/20 04:42:36;;;;;;;87.32;49.65;;;;;;;7.58;62.80;100076.34;3584234;40;20045;-71
2021/04/20 04:45:06;;;;;;;89.22;47.20;;;;;;;7.70;62.75;100080.31;3585385;40;20044;-71
2021/04/20 04:47:33;;;;;;;91.60;46.90;;;;;;;7.81;62.58;100080.88;3584795;40;20037;-71
2021/04/20 04:50:01;;;;;;;80.90;44.63;;;;;;;7.91;62.33;100082.28;3594108;39;20044;-69
2021/04/20 04:52:29;;;;;;;88.90;43.92;;;;;;;7.95;62.46;100070.88;3585704;40;20045;-70
2021/04/20 04:54:55;;;;;;;81.70;42.00;;;;;;;8.04;62.21;100078.41;3583626;40;20029;-70
2021/04/20 04:57:24;;;;;;;86.50;45.05;;;;;;;8.15;62.16;100078.97;3586844;40;20035;-70
2021/04/20 04:59:53;;;;;;;82.75;44.33;;;;;;;8.30;62.00;100074.13;3582895;40;20040;-70
2021/04/20 05:02:20;;;;;;;87.07;45.42;;;;;;;8.45;61.62;100071.06;3582824;40;20358;-69
2021/04/20 05:04:47;;;;;;;82.35;47.05;;;;;;;8.76;61.30;100071.78;3581576;40;20032;-70
2021/04/20 05:07:14;;;;;;;92.40;47.30;;;;;;;9.45;60.28;100064.97;3585374;40;20043;-69
2021/04/20 05:09:40;;;;;;;90.55;47.75;;;;;;;10.43;58.02;100066.47;3582413;40;20039;-70
2021/04/20 05:12:10;;;;;;;92.43;47.80;;;;;;;11.29;56.00;100064.53;3584552;40;20330;-70
2021/04/20 05:14:36;;;;;;;90.05;48.15;;;;;;;11.35;56.09;100062.56;3582390;40;20094;-70
2021/04/20 05:17:04;;;;;;;89.07;44.58;;;;;;;11.13;56.87;100062.66;3582481;40;20037;-68
2021/04/20 05:19:32;;;;;;;90.75;46.40;;;;;;;11.04;57.25;100066.53;3583670;40;20099;-69
2021/04/20 05:22:00;;;;;;;80.10;43.42;;;;;;;11.19;56.84;100060.59;3587150;40;20051;-70
2021/04/20 05:24:27;;;;;;;66.63;35.05;;;;;;;11.47;55.77;100064.63;3585514;40;20041;-70
2021/04/20 05:26:54;;;;;;;63.28;31.95;;;;;;;11.55;55.46;100068.63;3583496;40;20092;-70
2021/04/20 05:29:20;;;;;;;43.63;26.10;;;;;;;11.78;54.69;100064.97;3582937;40;20357;-70
2021/04/20 05:31:47;;;;;;;53.10;28.40;;;;;;;12.07;53.77;100062.75;3586707;40;20033;-69
2021/04/20 05:34:14;;;;;;;67.45;32.28;;;;;;;12.23;53.57;100062.88;3583619;40;20025;-70
2021/04/20 05:36:41;;;;;;;65.90;32.95;;;;;;;12.42;53.10;100061.91;3582692;40;20029;-70
2021/04/20 05:39:10;;;;;;;46.97;26.13;;;;;;;12.63;52.95;100064.41;3584618;40;20039;-69
2021/04/20 05:41:39;;;;;;;73.20;30.38;;;;;;;13.39;51.12;100065.78;3586197;40;20409;-70
2021/04/20 05:44:07;;;;;;;46.13;26.83;;;;;;;14.30;49.13;100060.75;3583527;40;20049;-69
2021/04/20 05:46:37;;;;;;;43.85;24.42;;;;;;;14.71;48.34;100065.47;3587804;40;20036;-69
2021/04/20 05:49:05;;;;;;;39.58;24.05;;;;;;;15.18;47.58;100059.16;3586591;40;20046;-69
2021/04/20 05:51:32;;;;;;;43.13;23.35;;;;;;;15.98;46.14;100058.59;3586390;39;20040;-68
2021/04/20 05:53:59;;;;;;;37.47;21.15;;;;;;;16.89;44.19;100058.88;3587218;39;20053;-68
2021/04/20 05:56:26;;;;;;;38.72;22.70;;;;;;;17.90;42.22;100056.19;3586813;40;20033;-70
2021/04/20 05:58:54;;;;;;;36.35;19.13;;;;;;;18.76;39.83;100057.91;3585120;39;20309;-70
2021/04/20 06:01:22;;;;;;;29.45;17.27;;;;;;;19.29;38.70;100056.44;3585249;40;20040;-69
2021/04/20 06:03:49;;;;;;;30.90;18.58;;;;;;;19.71;38.08;100054.06;3584656;40;20037;-69
2021/04/20 06:06:19;;;;;;;34.88;18.38;;;;;;;19.21;38.53;100052.69;3585897;40;20302;-70
2021/04/20 06:08:47;;;;;;;26.30;16.77;;;;;;;19.12;38.73;100056.91;3585533;40;20109;-70
2021/04/20 06:11:14;;;;;;;26.23;16.80;;;;;;;19.40;38.36;100050.31;3585916;40;20404;-70
2021/04/20 06:13:41;;;;;;;19.90;13.38;;;;;;;20.27;36.02;100049.53;3587091;40;20044;-69
2021/04/20 06:16:10;;;;;;;23.65;13.82;;;;;;;21.62;33.26;100052.31;3585212;40;20046;-69
2021/04/20 06:18:38;;;;;;;19.63;12.95;;;;;;;22.58;31.93;100051.75;3585790;40;20041;-69
2021/04/20 06:21:05;;;;;;;21.15;13.15;;;;;;;23.67;30.03;100037.06;3585042;40;20302;-70
2021/04/20 06:23:35;;;;;;;21.23;13.35;;;;;;;24.10;29.06;100036.41;3585246;40;20034;-69
2021/04/20 06:26:03;;;;;;;20.17;13.05;;;;;;;24.22;29.17;100039.75;3585707;40;20374;-70
2021/04/20 06:28:31;;;;;;;19.10;12.85;;;;;;;24.99;27.97;100028.44;3585524;40;20073;-69
2021/04/20 06:31:00;;;;;;;20.08;12.63;;;;;;;26.10;25.86;100032.03;3586592;40;20052;-69
2021/04/20 06:33:27;;;;;;;15.27;10.68;;;;;;;25.89;26.38;100031.63;3586591;40;20040;-69
2021/04/20 06:35:54;;;;;;;13.57;9.60;;;;;;;25.18;26.71;100033.56;3584780;40;20029;-69
2021/04/20 06:38:22;;;;;;;13.77;9.45;;;;;;;25.31;26.41;100029.63;3584183;40;20064;-69
2021/04/20 06:40:52;;;;;;;13.38;8.38;;;;;;;25.32;26.00;100036.69;3584784;40;20037;-69
2021/04/20 06:43:26;;;;;;;14.55;9.13;;;;;;;26.13;25.28;100031.69;3586144;40;20313;-69
2021/04/20 06:45:55;;;;;;;12.20;9.30;;;;;;;27.90;23.29;100022.84;3582918;40;20114;-70
2021/04/20 06:48:33;;;;;;;11.45;8.13;;;;;;;29.66;20.89;100017.22;3584216;40;20273;-68
2021/04/20 06:51:01;;;;;;;8.63;5.50;;;;;;;31.36;19.04;100012.06;3582898;40;20298;-69
2021/04/20 06:53:33;;;;;;;10.65;7.47;;;;;;;32.25;17.91;100014.75;3584102;40;20346;-68
2021/04/20 06:56:10;;;;;;;15.88;8.55;;;;;;;33.35;17.36;100008.81;3583561;40;20028;-70
2021/04/20 06:58:50;;;;;;;9.88;6.35;;;;;;;34.74;15.98;100010.84;3584162;40;20052;-68
2021/04/20 07:01:20;;;;;;;9.45;6.50;;;;;;;35.84;14.88;100002.91;3586628;40;20040;-69
2021/04/20 07:04:05;;;;;;;8.32;5.97;;;;;;;37.34;13.59;100002.66;3592469;39;20364;-67
2021/04/20 07:06:36;;;;;;;8.95;5.75;;;;;;;37.88;12.79;99998.63;3584509;40;20406;-68
2021/04/20 07:09:09;;;;;;;13.23;5.55;;;;;;;38.31;12.42;99998.09;3586289;40;20058;-67
2021/04/20 07:11:41;;;;;;;6.28;4.82;;;;;;;38.87;11.84;99992.75;3584882;40;20040;-67
2021/04/20 07:14:11;;;;;;;6.03;4.85;;;;;;;38.97;11.54;99993.75;3586390;40;20045;-67
2021/04/20 07:16:50;;;;;;;6.72;5.32;;;;;;;38.85;11.39;99993.00;3585760;40;20084;-67
2021/04/20 07:19:39;;;;;;;7.57;5.40;;;;;;;39.62;11.62;99995.81;3584611;40;20455;-68
2021/04/20 07:22:40;;;;;;;7.28;5.32;;;;;;;40.61;10.78;99997.44;3586050;40;20106;-67
2021/04/20 07:25:21;;;;;;;7.28;5.43;;;;;;;39.96;11.01;99990.19;3562771;40;20033;-68
2021/04/20 07:28:01;;;;;;;7.07;5.50;;;;;;;40.13;10.30;99995.56;3586837;40;20348;-66
2021/04/20 07:30:33;;;;;;;8.70;5.80;;;;;;;41.39;9.75;99986.72;3583960;40;20053;-66
2021/04/20 07:33:25;;;;;;;11.45;5.53;;;;;;;43.00;9.07;99994.78;3586119;40;20033;-66
2021/04/20 07:36:01;;;;;;;9.75;6.10;;;;;;;43.50;8.55;99999.34;3584841;40;20394;-67
2021/04/20 07:38:33;;;;;;;6.78;5.35;;;;;;;44.00;7.94;99986.44;3586231;40;20029;-67
2021/04/20 07:41:21;;;;;;;7.45;5.47;;;;;;;44.13;7.89;99985.00;3585298;40;20036;-66
2021/04/20 07:44:08;;;;;;;8.77;6.15;;;;;;;44.12;7.87;99984.16;3583173;40;20033;-67
2021/04/20 07:46:39;;;;;;;8.48;6.10;;;;;;;43.61;8.07;99983.59;3583871;40;20062;-67
2021/04/20 07:49:19;;;;;;;8.48;6.38;;;;;;;43.61;8.05;99978.91;3583472;40;20198;-66
2021/04/20 07:52:01;;;;;;;;;;;;;;;44.49;8.82;99982.81;3585720;40;20062;-68
2021/04/20 07:54:42;;;;;;;8.75;5.60;;;;;;;44.60;8.05;99976.91;3583010;40;19932;-67
2021/04/20 07:57:15;;;;;;;7.55;5.80;;;;;;;44.99;7.32;99971.31;3583561;40;20273;-66
2021/04/20 07:59:46;;;;;;;7.93;5.40;;;;;;;45.25;7.44;99979.34;3585481;40;20033;-67
2021/04/20 08:02:26;;;;;;;9.15;5.35;;;;;;;45.75;6.80;99972.34;3585679;40;20154;-66
2021/04/20 08:04:59;;;;;;;8.65;4.93;;;;;;;45.19;6.97;99974.94;3584653;40;20118;-67
2021/04/20 08:07:36;;;;;;;7.78;4.47;;;;;;;45.86;6.08;99975.81;3585302;40;20052;-67
2021/04/20 08:10:07;;;;;;;7.05;4.82;;;;;;;46.04;6.33;99979.75;3585090;40;20364;-67
2021/04/20 08:12:40;;;;;;;7.30;4.97;;;;;;;47.14;6.39;99967.06;3586025;40;20040;-66
2021/04/20 08:15:11;;;;;;;6.55;4.22;;;;;;;47.27;5.38;99974.56;3584273;40;20409;-67
2021/04/20 08:17:45;;;;;;;5.93;3.97;;;;;;;46.77;5.50;99963.28;3583677;40;20435;-67
2021/04/20 08:20:14;;;;;;;6.88;4.20;;;;;;;45.76;6.00;99964.88;3583046;40;20041;-67
2021/04/20 08:22:45;;;;;;;5.93;3.67;;;;;;;45.87;5.60;99969.97;3585950;40;20080;-66
2021/04/20 08:25:21;;;;;;;4.38;3.45;;;;;;;45.66;5.94;99956.72;3584809;40;20045;-67
2021/04/20 08:27:54;;;;;;;5.97;3.88;;;;;;;46.37;5.19;99962.00;3585205;40;20409;-66
2021/04/20 08:30:31;;;;;;;6.18;3.85;;;;;;;46.36;5.12;99965.06;3583405;40;20080;-66
2021/04/20 08:33:02;;;;;;;4.97;3.90;;;;;;;46.71;5.15;99950.63;3584983;40;20049;-67
2021/04/20 08:35:29;;;;;;;5.72;3.90;;;;;;;47.41;4.78;99951.50;3585712;40;20052;-68
2021/04/20 08:38:07;;;;;;;3.90;3.00;;;;;;;47.41;4.66;99952.34;3585775;40;20345;-68
2021/04/20 08:40:41;;;;;;;4.50;3.45;;;;;;;46.30;4.56;99957.97;3576308;40;20033;-68
2021/04/20 08:43:35;;;;;;;3.85;2.90;;;;;;;44.86;5.68;99949.88;3581847;40;20274;-67
2021/04/20 08:46:10;;;;;;;4.25;3.38;;;;;;;44.70;5.41;99948.34;3577591;40;20040;-67
2021/04/20 08:48:49;;;;;;;4.57;3.05;;;;;;;44.81;5.41;99943.53;3579025;40;20047;-68
2021/04/20 08:51:27;;;;;;;3.40;2.80;;;;;;;44.53;5.39;99946.00;3585601;40;20033;-66
2021/04/20 08:54:19;;;;;;;3.72;3.05;;;;;;;43.72;5.74;99938.28;3586558;40;20037;-66
2021/04/20 08:56:51;;;;;;;8.68;3.80;;;;;;;44.29;5.96;99947.84;3586080;40;20463;-72
2021/04/20 08:59:33;;;;;;;3.33;2.88;;;;;;;43.59;6.00;99944.41;3584833;40;20409;-71
2021/04/20 09:02:38;;;;;;;3.33;2.60;;;;;;;42.70;6.23;99941.34;3582532;40;20041;-72
2021/04/20 09:05:14;;;;;;;5.65;3.50;;;;;;;43.45;5.77;99944.19;3580368;40;20398;-72
2021/04/20 09:07:52;;;;;;;4.60;2.80;;;;;;;43.45;5.86;99933.97;3587312;40;20025;-72
2021/04/20 09:10:22;;;;;;;4.20;3.35;;;;;;;42.28;5.83;99939.69;3587664;40;20109;-72
2021/04/20 09:12:55;;;;;;;4.60;3.50;;;;;;;41.72;6.15;99930.47;3586697;40;20028;-73
2021/04/20 09:15:23;;;;;;;3.50;2.92;;;;;;;41.68;6.58;99934.88;3587734;40;20031;-72
2021/04/20 09:17:51;;;;;;;2.83;2.58;;;;;;;42.19;5.95;99934.97;3589517;40;20313;-73
2021/04/20 09:20:31;;;;;;;4.20;2.80;;;;;;;42.60;5.95;99930.31;3588903;40;20035;-71
2021/04/20 09:23:01;;;;;;;6.32;3.17;;;;;;;43.09;5.59;99927.75;3589297;40;20080;-72
2021/04/20 09:25:31;;;;;;;5.53;2.75;;;;;;;42.33;5.80;99925.06;3587326;40;20171;-74
2021/04/20 09:28:03;;;;;;;4.95;3.08;;;;;;;41.52;6.55;99919.38;3596660;40;20048;-73
2021/04/20 09:30:38;;;;;;;4.55;3.00;;;;;;;41.41;5.97;99918.50;3589128;40;20067;-72
2021/04/20 09:33:07;;;;;;;7.32;3.10;;;;;;;39.15;7.38;99928.78;3596883;40;20036;-73
2021/04/20 09:35:38;;;;;;;3.90;2.95;;;;;;;34.42;10.11;99928.41;3588837;40;20056;-71
2021/04/20 09:38:12;;;;;;;4.90;3.53;;;;;;;33.45;10.80;99921.41;3589685;40;20032;-72
2021/04/20 09:40:40;;;;;;;3.40;2.80;;;;;;;35.47;10.21;99907.47;3587729;40;20305;-72
2021/04/20 09:43:18;;;;;;;4.30;3.15;;;;;;;38.07;8.66;99911.69;3589308;40;20069;-73
2021/04/20 09:45:52;;;;;;;6.00;3.60;;;;;;;38.40;8.29;99910.91;3589733;40;20068;-72
2021/04/20 09:48:24;;;;;;;5.72;3.42;;;;;;;38.24;8.34;99912.56;3588805;40;20121;-72
2021/04/20 09:50:57;;;;;;;3.65;3.20;;;;;;;37.42;8.86;99912.06;3589385;40;20025;-72
2021/04/20 09:53:31;;;;;;;4.93;3.83;;;;;;;34.71;10.36;99908.66;3590266;40;20386;-72
2021/04/20 09:56:08;;;;;;;4.60;3.90;;;;;;;32.68;12.29;99921.09;3589257;40;20086;-71
2021/04/20 09:58:39;;;;;;;4.10;3.50;;;;;;;31.25;12.77;99921.41;3590164;40;20386;-72
2021/04/20 10:01:39;;;;;;;3.97;3.55;;;;;;;30.33;13.38;99916.94;3597016;39;20068;-73
2021/04/20 10:04:07;;;;;;;3.90;3.38;;;;;;;29.20;14.27;99913.94;3571162;40;20129;-73
2021/04/20 10:07:09;;;;;;;3.80;2.95;;;;;;;28.54;15.06;99918.34;3589698;40;20040;-71
2021/04/20 10:09:45;;;;;;;6.00;3.40;;;;;;;28.31;15.22;99912.13;3589774;40;20160;-72
2021/04/20 10:12:33;;;;;;;7.68;3.88;;;;;;;27.97;15.88;99913.38;3589316;40;20161;-71
2021/04/20 10:15:10;;;;;;;7.05;4.60;;;;;;;27.10;16.73;99915.28;3589557;40;20060;-71
2021/04/20 10:17:45;;;;;;;5.53;3.75;;;;;;;26.12;17.32;99923.41;3588830;40;20088;-71
2021/04/20 10:20:19;;;;;;;6.47;3.85;;;;;;;25.71;17.52;99916.28;3589177;40;20106;-71
2021/04/20 10:22:55;;;;;;;6.00;4.15;;;;;;;25.46;18.55;99916.19;3588118;40;20040;-71
2021/04/20 10:25:36;;;;;;;7.10;4.43;;;;;;;25.03;18.57;99913.66;3584607;40;20104;-72
2021/04/20 10:28:13;;;;;;;5.63;3.90;;;;;;;24.39;18.99;99913.03;3586814;40;20040;-72
2021/04/20 10:30:42;;;;;;;5.57;3.63;;;;;;;24.07;19.23;99920.72;3589089;39;20060;-72
2021/04/20 10:33:11;;;;;;;8.13;4.35;;;;;;;23.85;19.50;99914.84;3588676;40;20033;-72
2021/04/20 10:35:39;;;;;;;5.35;4.22;;;;;;;23.93;19.26;99912.22;3588298;40;20160;-73
2021/04/20 10:38:11;;;;;;;7.50;3.90;;;;;;;23.88;19.55;99911.84;3587162;40;20373;-72
2021/04/20 10:40:41;;;;;;;5.57;3.50;;;;;;;24.07;19.41;99910.03;3586227;40;20420;-71
2021/04/20 10:43:12;;;;;;;5.70;3.88;;;;;;;23.95;19.29;99912.94;3588192;39;20135;-71
2021/04/20 10:45:40;;;;;;;4.53;3.42;;;;;;;24.03;18.98;99904.13;3586766;40;20141;-71
2021/04/20 10:48:08;;;;;;;5.50;3.85;;;;;;;23.71;19.69;99899.28;3586270;40;20039;-70
2021/04/20 10:50:38;;;;;;;6.20;5.05;;;;;;;23.14;20.15;99906.63;3594930;39;20040;-70
2021/04/20 10:53:09;;;;;;;5.78;3.88;;;;;;;22.71;20.61;99910.69;3586658;40;20036;-70
2021/04/20 10:55:39;;;;;;;6.57;3.72;;;;;;;22.60;20.72;99902.84;3594834;40;20032;-71
2021/04/20 10:58:08;;;;;;;4.68;3.67;;;;;;;22.66;20.79;99902.25;3587856;40;20069;-71
2021/04/20 11:00:36;;;;;;;6.28;4.07;;;;;;;22.89;21.10;99896.59;3587490;40;20036;-70
2021/04/20 11:03:05;;;;;;;5.55;4.18;;;;;;;22.88;20.94;99902.91;3586033;40;20065;-69
2021/04/20 11:05:32;;;;;;;5.32;3.45;;;;;;;22.99;20.72;99898.25;3586841;40;20077;-70
2021/04/20 11:07:59;;;;;;;4.28;3.50;;;;;;;22.90;21.16;99898.25;3585798;40;20274;-71
2021/04/20 11:10:35;;;;;;;7.75;3.90;;;;;;;22.87;21.14;99890.53;3586750;40;20060;-70
2021/04/20 11:13:02;;;;;;;4.60;3.53;;;;;;;22.98;21.51;99899.25;3583036;40;20025;-71
2021/04/20 11:15:30;;;;;;;6.22;3.63;;;;;;;22.80;21.23;99891.09;3582348;40;20356;-70
2021/04/20 11:18:11;;;;;;;6.05;3.90;;;;;;;22.33;21.97;99898.25;3586080;40;20390;-71
2021/04/20 11:20:39;;;;;;;4.82;3.45;;;;;;;22.06;22.23;99877.59;3582566;40;20025;-71
2021/04/20 11:23:19;;;;;;;4.32;3.55;;;;;;;21.96;22.11;99891.91;3583548;40;20118;-71
2021/04/20 11:25:56;;;;;;;5.68;3.45;;;;;;;21.89;22.40;99891.63;3581854;40;20040;-71
2021/04/20 11:28:27;;;;;;;4.88;4.03;;;;;;;21.80;22.17;99881.78;3587037;40;20361;-71
2021/04/20 11:30:54;;;;;;;;;;;;;;;22.00;21.83;99880.78;3585447;40;20057;-71
2021/04/20 11:33:27;;;;;;;7.22;4.32;;;;;;;22.23;21.94;99880.53;3584862;40;19944;-71
2021/04/20 11:35:56;;;;;;;6.88;4.10;;;;;;;22.15;21.84;99875.91;3581968;40;20048;-68
2021/04/20 11:38:23;;;;;;;7.00;4.00;;;;;;;22.07;21.92;99871.28;3588205;40;20028;-68